Time;durP1;ratioP1;P1;durP2;ratioP2;P2;SDS_P1;SDS_P2;PMS_P1;PMS_P2;Temp;Humidity;BMP_temperature;BMP_pressure;BME280_temperature;BME280_humidity;BME280_pressure;Samples;Min_cycle;Max_cycle;Signal;HPM_P1;HPM_P2
2021/12/25 00:00:42;;;;;;;20.00;12.40;;;;;;;5.25;100.00;100438.13;6217908;23;20016;-67
2021/12/25 00:03:07;;;;;;;19.35;11.65;;;;;;;5.14;100.00;100433.78;6217868;23;20067;-67
2021/12/25 00:05:33;;;;;;;16.83;10.85;;;;;;;5.09;100.00;100428.56;6217839;23;20005;-67
2021/12/25 00:07:58;;;;;;;19.92;12.52;;;;;;;5.08;100.00;100424.25;6217943;23;20009;-67
2021/12/25 00:10:23;;;;;;;18.95;12.38;;;;;;;5.14;100.00;100428.59;6217782;23;20004;-67
2021/12/25 00:12:50;;;;;;;19.92;12.60;;;;;;;5.13;100.00;100426.84;6217852;23;20334;-67
2021/12/25 00:15:15;;;;;;;18.50;11.88;;;;;;;5.09;100.00;100432.91;6217128;23;20355;-67
2021/12/25 00:17:41;;;;;;;19.35;12.63;;;;;;;5.04;100.00;100421.63;6217804;23;20017;-67
2021/12/25 00:20:06;;;;;;;21.63;12.90;;;;;;;5.10;100.00;100434.63;6217616;23;20086;-67
2021/12/25 00:22:32;;;;;;;20.35;13.35;;;;;;;5.09;100.00;100428.56;6217591;23;20012;-67
2021/12/25 00:24:57;;;;;;;22.67;14.45;;;;;;;5.05;100.00;100424.22;6217310;23;20347;-68
2021/12/25 00:30:20;;;;;;;22.02;13.60;;;;;;;5.08;100.00;100420.78;6217604;23;20035;-67
2021/12/25 00:32:50;;;;;;;23.58;13.70;;;;;;;5.12;100.00;100415.63;6217225;23;20314;-68
2021/12/25 00:35:15;;;;;;;22.27;14.10;;;;;;;5.07;100.00;100403.50;6217363;23;20413;-67
2021/12/25 00:37:40;;;;;;;22.23;13.27;;;;;;;4.93;100.00;100394.84;6217626;23;20004;-67
2021/12/25 00:40:07;;;;;;;22.05;13.70;;;;;;;5.07;100.00;100419.91;6217467;23;20008;-67
2021/12/25 00:42:32;;;;;;;25.65;14.13;;;;;;;5.10;100.00;100411.28;6217376;23;20012;-67
2021/12/25 00:44:57;;;;;;;23.27;14.05;;;;;;;5.09;100.00;100425.13;6217531;23;20401;-67
2021/12/25 00:47:22;;;;;;;24.98;13.93;;;;;;;5.06;100.00;100422.50;6217714;23;20004;-67
2021/12/25 00:49:48;;;;;;;24.45;14.27;;;;;;;4.97;100.00;100425.97;6217409;23;20028;-68
2021/12/25 00:52:13;;;;;;;24.80;14.82;;;;;;;4.94;100.00;100418.16;6217649;23;20012;-67
2021/12/25 00:54:39;;;;;;;25.52;14.88;;;;;;;4.90;100.00;100427.66;6217449;23;20406;-67
2021/12/25 00:57:04;;;;;;;25.17;15.43;;;;;;;4.95;100.00;100429.41;6216905;23;20097;-67
2021/12/25 00:59:29;;;;;;;27.73;15.05;;;;;;;4.95;100.00;100419.91;6217673;23;20236;-67
2021/12/25 01:01:55;;;;;;;27.23;15.27;;;;;;;4.93;100.00;100423.34;6217314;23;20004;-67
2021/12/25 01:04:20;;;;;;;30.02;15.70;;;;;;;4.95;100.00;100429.41;6217219;23;20038;-67
2021/12/25 01:06:46;;;;;;;29.00;15.98;;;;;;;4.92;100.00;100419.88;6217260;23;20005;-67
2021/12/25 01:09:11;;;;;;;27.45;15.60;;;;;;;4.98;100.00;100424.25;6217006;23;20365;-67
2021/12/25 01:11:37;;;;;;;28.58;15.93;;;;;;;5.01;100.00;100422.53;6217114;23;20005;-67
2021/12/25 01:14:13;;;;;;;28.48;15.80;;;;;;;4.96;100.00;100421.63;6217318;23;20291;-67
2021/12/25 01:27:43;;;;;;;30.77;17.40;;;;;;;4.90;100.00;100412.09;6217072;23;20009;-67
2021/12/25 01:29:58;;;;;;;29.42;16.90;;;;;;;4.92;100.00;100414.69;6216630;23;20119;-67
2021/12/25 01:33:00;;;;;;;29.88;17.27;;;;;;;4.88;100.00;100412.97;6217186;23;20004;-67
2021/12/25 01:41:03;;;;;;;33.72;18.80;;;;;;;4.81;100.00;100413.81;6201521;23;20004;-68
2021/12/25 01:48:56;;;;;;;36.88;21.58;;;;;;;4.72;100.00;100406.00;6218503;23;20024;-68
2021/12/25 01:51:21;;;;;;;39.22;22.63;;;;;;;4.75;100.00;100398.25;6218835;23;20012;-67
2021/12/25 01:53:46;;;;;;;44.08;23.08;;;;;;;4.81;100.00;100414.69;6219373;23;20009;-68
2021/12/25 01:56:12;;;;;;;41.35;22.50;;;;;;;4.80;100.00;100409.50;6219418;23;20094;-69
2021/12/25 01:58:37;;;;;;;44.38;23.80;;;;;;;4.79;100.00;100412.94;6219185;23;20015;-68
2021/12/25 02:01:06;;;;;;;47.50;23.83;;;;;;;4.77;100.00;100417.25;6219120;23;20008;-68
2021/12/25 02:03:34;;;;;;;45.45;24.48;;;;;;;4.72;100.00;100401.69;6218563;23;20028;-69
2021/12/25 02:06:00;;;;;;;45.35;24.52;;;;;;;4.68;100.00;100412.91;6218802;23;20008;-69
2021/12/25 02:08:26;;;;;;;42.88;23.90;;;;;;;4.73;100.00;100405.13;6219169;23;20015;-69
2021/12/25 02:10:51;;;;;;;46.30;25.70;;;;;;;4.66;100.00;100406.88;6218885;23;20032;-68
2021/12/25 02:13:18;;;;;;;49.75;25.38;;;;;;;4.71;100.00;100412.91;6219165;23;20055;-67
2021/12/25 02:15:46;;;;;;;46.25;26.10;;;;;;;4.68;100.00;100410.31;6218680;23;20008;-69
2021/12/25 02:18:28;;;;;;;46.75;25.77;;;;;;;4.74;100.00;100410.34;6218771;23;20061;-68
2021/12/25 02:21:07;;;;;;;50.45;26.60;;;;;;;4.72;100.00;100406.00;6219854;23;20074;-68
2021/12/25 02:23:34;;;;;;;51.20;26.85;;;;;;;4.76;100.00;100405.16;6218753;23;20066;-68
2021/12/25 02:26:00;;;;;;;48.40;26.90;;;;;;;4.73;100.00;100410.31;6219120;23;20008;-68
2021/12/25 02:28:26;;;;;;;49.25;26.30;;;;;;;4.69;100.00;100406.84;6218622;23;20079;-68
2021/12/25 02:31:02;;;;;;;50.08;26.42;;;;;;;4.66;100.00;100408.59;6218651;23;20009;-68
2021/12/25 02:33:28;;;;;;;49.20;26.88;;;;;;;4.67;100.00;100402.56;6218295;23;20001;-68
2021/12/25 02:35:54;;;;;;;47.78;26.35;;;;;;;4.63;100.00;100399.06;6218656;23;20066;-68
2021/12/25 02:38:20;;;;;;;48.00;25.77;;;;;;;4.67;100.00;100400.81;6219015;23;20004;-68
2021/12/25 02:40:45;;;;;;;49.47;26.25;;;;;;;4.64;100.00;100400.81;6218577;23;20088;-68
2021/12/25 02:43:11;;;;;;;46.27;25.30;;;;;;;4.57;100.00;100405.94;6218255;23;20004;-68
2021/12/25 02:45:37;;;;;;;48.15;24.75;;;;;;;4.58;100.00;100418.91;6218671;23;20279;-68
2021/12/25 02:48:10;;;;;;;45.75;24.88;;;;;;;4.57;100.00;100412.00;6218565;23;20012;-68
2021/12/25 02:50:38;;;;;;;45.83;24.88;;;;;;;4.53;100.00;100416.28;6218494;23;20391;-68
2021/12/25 02:53:06;;;;;;;43.80;24.90;;;;;;;4.49;100.00;100421.47;6218522;23;20015;-68
2021/12/25 02:55:31;;;;;;;44.05;23.30;;;;;;;4.49;100.00;100424.94;6218554;23;20000;-68
2021/12/25 02:57:57;;;;;;;50.05;24.15;;;;;;;4.46;100.00;100419.75;6218385;23;20043;-68
2021/12/25 03:00:26;;;;;;;42.85;23.95;;;;;;;4.45;100.00;100417.13;6218396;23;20467;-68
2021/12/25 03:02:51;;;;;;;47.05;24.55;;;;;;;4.44;100.00;100426.63;6218487;23;20460;-68
2021/12/25 03:05:17;;;;;;;38.55;21.15;;;;;;;4.47;100.00;100424.06;6218444;23;20095;-68
2021/12/25 03:07:43;;;;;;;35.53;20.23;;;;;;;4.37;100.00;100424.84;6218545;23;20019;-67
2021/12/25 03:10:11;;;;;;;34.97;20.05;;;;;;;4.22;100.00;100424.78;6218497;23;20040;-68
2021/12/25 03:12:47;;;;;;;35.25;19.88;;;;;;;4.19;100.00;100420.44;6218214;23;20008;-68
2021/12/25 03:15:17;;;;;;;35.70;20.40;;;;;;;4.15;100.00;100423.91;6218425;23;20050;-67
2021/12/25 03:17:42;;;;;;;34.00;19.63;;;;;;;4.11;100.00;100431.63;6218221;23;20357;-67
2021/12/25 03:20:10;;;;;;;32.13;18.73;;;;;;;4.03;100.00;100443.66;6218126;23;20016;-67
2021/12/25 03:22:37;;;;;;;33.38;18.95;;;;;;;3.96;100.00;100437.59;6218372;23;20031;-67
2021/12/25 03:25:05;;;;;;;37.20;20.60;;;;;;;3.93;100.00;100447.03;6218169;23;20413;-67
2021/12/25 03:27:30;;;;;;;38.83;19.52;;;;;;;3.81;100.00;100453.84;6219254;23;20008;-67
2021/12/25 03:29:55;;;;;;;38.22;19.48;;;;;;;3.70;100.00;100444.28;6217785;23;20016;-67
2021/12/25 03:32:21;;;;;;;38.65;20.33;;;;;;;3.76;100.00;100455.56;6218492;23;20015;-67
2021/12/25 03:34:46;;;;;;;37.35;20.15;;;;;;;3.66;100.00;100450.28;6218516;23;20004;-66
2021/12/25 03:37:11;;;;;;;40.05;20.20;;;;;;;3.66;100.00;100458.91;6218132;23;20445;-66
2021/12/25 03:39:36;;;;;;;44.65;20.38;;;;;;;3.55;100.00;100457.09;6218023;23;20005;-66
2021/12/25 03:42:02;;;;;;;48.47;22.02;;;;;;;3.50;100.00;100459.63;6217931;23;20056;-66
2021/12/25 03:44:28;;;;;;;41.70;20.17;;;;;;;3.50;100.00;100457.91;6218011;23;20008;-66
2021/12/25 03:46:59;;;;;;;41.13;20.50;;;;;;;3.55;100.00;100464.84;6218077;23;20005;-65
2021/12/25 03:49:34;;;;;;;44.35;21.17;;;;;;;3.47;100.00;100455.28;6217666;23;20484;-65
2021/12/25 03:57:44;;;;;;;40.30;20.40;;;;;;;3.43;100.00;100461.31;6217868;23;20058;-67
2021/12/25 04:00:14;;;;;;;41.93;20.33;;;;;;;3.44;100.00;100468.22;6218075;23;20020;-66
2021/12/25 04:02:51;;;;;;;40.63;20.08;;;;;;;3.31;100.00;100468.94;6217452;23;20238;-65
2021/12/25 04:05:19;;;;;;;39.53;19.65;;;;;;;3.31;100.00;100461.16;6217999;23;20016;-65
2021/12/25 04:08:02;;;;;;;35.35;19.33;;;;;;;3.15;100.00;100474.78;6218207;23;20078;-65
2021/12/25 04:10:29;;;;;;;36.13;19.55;;;;;;;3.11;100.00;100476.50;6217980;23;20015;-64
2021/12/25 04:12:57;;;;;;;43.00;21.05;;;;;;;3.10;100.00;100471.31;6218069;23;20290;-64
2021/12/25 04:15:22;;;;;;;40.47;20.70;;;;;;;3.11;100.00;100476.50;6217846;23;20013;-64
2021/12/25 04:17:47;;;;;;;45.75;20.58;;;;;;;3.17;100.00;100482.56;6217826;23;20405;-65
2021/12/25 04:20:13;;;;;;;39.72;19.77;;;;;;;3.12;100.00;100483.38;6218005;23;20390;-66
2021/12/25 04:22:46;;;;;;;42.95;21.13;;;;;;;3.10;100.00;100486.84;6218154;23;20036;-65
2021/12/25 04:25:12;;;;;;;40.53;19.88;;;;;;;3.13;100.00;100484.25;6217323;23;20422;-65
2021/12/25 04:27:38;;;;;;;48.13;22.35;;;;;;;3.16;100.00;100489.47;6218040;23;20009;-65
2021/12/25 04:30:18;;;;;;;41.08;20.15;;;;;;;3.02;100.00;100493.63;6218141;23;20038;-65
2021/12/25 04:33:21;;;;;;;39.33;20.05;;;;;;;2.96;100.00;100494.41;6217967;23;20016;-64
2021/12/25 05:01:45;;;;;;;41.47;23.20;;;;;;;2.35;100.00;100528.91;6217067;23;20019;-65
2021/12/25 05:03:33;;;;;;;42.92;23.67;;;;;;;2.00;100.00;100534.41;6216863;23;20086;-62
2021/12/25 05:05:59;;;;;;;42.42;23.65;;;;;;;1.86;100.00;100528.16;6217254;23;20090;-63
2021/12/25 05:08:24;;;;;;;50.55;24.83;;;;;;;1.74;100.00;100545.97;6217643;23;20000;-62
2021/12/25 05:10:50;;;;;;;45.17;23.77;;;;;;;1.64;100.00;100542.38;6217812;23;20454;-62
2021/12/25 05:13:15;;;;;;;58.10;26.77;;;;;;;1.57;100.00;100543.09;6217929;23;20079;-62
2021/12/25 05:15:41;;;;;;;56.33;26.55;;;;;;;1.69;100.00;100553.66;6217382;23;20409;-62
2021/12/25 05:18:07;;;;;;;59.65;27.80;;;;;;;1.63;100.00;100537.19;6217116;23;20004;-61
2021/12/25 05:20:32;;;;;;;54.20;26.67;;;;;;;1.57;100.00;100543.09;6217193;23;20005;-63
2021/12/25 05:22:57;;;;;;;59.47;27.75;;;;;;;1.64;100.00;100551.84;6218534;23;20349;-63
2021/12/25 05:25:23;;;;;;;48.15;25.08;;;;;;;1.21;100.00;100514.09;6219419;23;20009;-62
2021/12/25 05:27:49;;;;;;;58.05;26.55;;;;;;;1.26;100.00;100546.81;6219555;23;20090;-61
2021/12/25 05:30:15;;;;;;;59.53;29.15;;;;;;;1.31;100.00;100564.97;6219273;23;20083;-61
2021/12/25 05:32:40;;;;;;;62.30;27.85;;;;;;;1.36;100.00;100553.03;6219451;23;20378;-62
2021/12/25 05:35:06;;;;;;;49.15;23.67;;;;;;;1.20;100.00;100562.19;6219703;23;20469;-61
2021/12/25 05:37:31;;;;;;;48.65;24.50;;;;;;;0.96;100.00;100559.97;6219715;23;20047;-62
2021/12/25 05:39:57;;;;;;;58.67;27.25;;;;;;;0.91;100.00;100565.88;6219066;23;20091;-61
2021/12/25 05:42:23;;;;;;;56.95;26.60;;;;;;;0.90;100.00;100572.72;6219257;23;20008;-63
2021/12/25 05:44:49;;;;;;;52.85;24.85;;;;;;;0.73;100.00;100576.66;6218920;23;20400;-61
2021/12/25 05:47:14;;;;;;;50.78;22.95;;;;;;;0.64;100.00;100576.44;6219247;23;20004;-62
2021/12/25 05:49:40;;;;;;;57.80;25.75;;;;;;;0.62;100.00;100571.28;6219302;23;20004;-62
2021/12/25 05:52:06;;;;;;;53.65;25.17;;;;;;;0.63;100.00;100577.28;6218922;23;20032;-60
2021/12/25 05:54:31;;;;;;;68.03;27.70;;;;;;;0.67;100.00;100582.56;6218940;23;20001;-58
2021/12/25 05:56:57;;;;;;;67.55;28.17;;;;;;;0.74;100.00;100586.09;6219262;23;20008;-62
2021/12/25 05:59:22;;;;;;;67.68;28.38;;;;;;;0.79;100.00;100581.06;6218964;23;20016;-61
2021/12/25 06:01:47;;;;;;;62.97;27.40;;;;;;;0.78;100.00;100589.63;6219103;23;20070;-62
2021/12/25 06:04:13;;;;;;;61.20;27.30;;;;;;;0.77;100.00;100599.06;6218823;23;20015;-62
2021/12/25 06:06:38;;;;;;;61.72;26.75;;;;;;;0.58;100.00;100591.75;6219092;23;20032;-61
2021/12/25 06:09:07;;;;;;;72.00;27.70;;;;;;;0.54;100.00;100582.22;6219445;23;20004;-62
2021/12/25 06:11:34;;;;;;;63.88;26.95;;;;;;;0.48;100.00;100590.69;6218824;23;20362;-63
2021/12/25 06:14:09;;;;;;;66.68;28.50;;;;;;;0.56;100.00;100604.59;6219007;23;20005;-62
2021/12/25 06:16:35;;;;;;;64.95;27.00;;;;;;;0.60;100.00;100597.81;6219122;23;20005;-61
2021/12/25 06:19:00;;;;;;;65.97;28.20;;;;;;;0.46;100.00;100588.91;6218627;23;20009;-62
2021/12/25 06:21:25;;;;;;;68.15;28.67;;;;;;;0.58;100.00;100607.19;6218996;23;20087;-62
2021/12/25 06:23:51;;;;;;;65.97;26.23;;;;;;;0.53;100.00;100604.50;6219045;23;20000;-62
2021/12/25 06:26:16;;;;;;;65.80;27.63;;;;;;;0.48;100.00;100605.25;6219370;23;20076;-61
2021/12/25 06:28:42;;;;;;;66.03;27.23;;;;;;;0.41;100.00;100600.78;6218845;23;20040;-61
2021/12/25 06:31:07;;;;;;;57.65;24.83;;;;;;;0.47;100.00;100614.69;6219077;23;20000;-61
2021/12/25 06:33:32;;;;;;;54.50;24.10;;;;;;;0.41;100.00;100604.25;6218760;23;20103;-59
2021/12/25 06:35:57;;;;;;;57.17;24.33;;;;;;;0.36;100.00;100616.13;6218792;23;20005;-60
2021/12/25 06:38:23;;;;;;;51.63;23.90;;;;;;;0.31;100.00;100608.31;6218954;23;20040;-61
2021/12/25 06:40:48;;;;;;;52.38;24.10;;;;;;;0.18;100.00;100615.66;6218902;23;20004;-61
2021/12/25 06:43:13;;;;;;;57.03;23.52;;;;;;;0.13;100.00;100622.44;6218258;23;20071;-61
2021/12/25 06:45:38;;;;;;;48.30;20.60;;;;;;;-0.08;100.00;100582.47;6218392;23;20024;-61
2021/12/25 06:48:04;;;;;;;48.90;22.48;;;;;;;0.10;100.00;100612.94;6218711;23;20051;-61
2021/12/25 06:50:29;;;;;;;57.30;23.30;;;;;;;0.06;100.00;100621.38;6218951;23;20075;-61
2021/12/25 06:52:55;;;;;;;48.70;21.92;;;;;;;0.10;100.00;100610.34;6218772;23;20011;-61
2021/12/25 06:55:21;;;;;;;51.38;22.73;;;;;;;0.07;100.00;100618.00;6218286;23;20283;-61
2021/12/25 06:57:53;;;;;;;45.22;19.45;;;;;;;-0.09;100.00;100591.00;6218571;23;20010;-62
2021/12/25 07:00:19;;;;;;;52.38;23.67;;;;;;;0.22;100.00;100630.34;6218588;23;20067;-62
2021/12/25 07:02:44;;;;;;;57.35;23.60;;;;;;;0.18;100.00;100618.25;6218527;23;20067;-61
2021/12/25 07:05:10;;;;;;;56.95;23.30;;;;;;;0.19;100.00;100627.69;6218593;23;20008;-61
2021/12/25 07:07:35;;;;;;;56.45;23.02;;;;;;;0.18;100.00;100644.84;6218539;23;20039;-61
2021/12/25 07:10:01;;;;;;;54.50;22.80;;;;;;;0.28;100.00;100645.97;6218763;23;20012;-61
2021/12/25 07:12:27;;;;;;;50.40;21.45;;;;;;;0.25;100.00;100635.59;6218397;23;20283;-61
2021/12/25 07:14:53;;;;;;;52.83;22.27;;;;;;;0.25;100.00;100645.88;6218718;23;20028;-61
2021/12/25 07:17:18;;;;;;;55.35;23.02;;;;;;;0.26;100.00;100645.91;6218738;23;20004;-61
2021/12/25 07:19:44;;;;;;;50.85;22.15;;;;;;;0.28;100.00;100645.97;6218350;23;20383;-62
2021/12/25 07:22:09;;;;;;;46.03;21.33;;;;;;;0.39;100.00;100657.38;6218459;23;20050;-62
2021/12/25 07:24:34;;;;;;;43.80;21.85;;;;;;;0.08;100.00;100622.31;6218214;23;20008;-60
2021/12/25 07:27:05;;;;;;;42.17;20.42;;;;;;;0.31;100.00;100658.91;6218542;23;20036;-61
2021/12/25 07:29:30;;;;;;;40.53;20.23;;;;;;;0.24;100.00;100641.56;6218361;23;20058;-62
2021/12/25 07:31:55;;;;;;;33.20;17.13;;;;;;;0.16;100.00;100666.25;6218470;23;20398;-62
2021/12/25 07:34:21;;;;;;;29.13;13.80;;;;;;;0.07;100.00;100663.41;6218383;23;20005;-61
2021/12/25 07:36:46;;;;;;;39.97;20.95;;;;;;;0.08;100.00;100668.59;6218205;23;20032;-62
2021/12/25 07:39:11;;;;;;;39.15;19.17;;;;;;;0.03;100.00;100664.16;6218245;23;20008;-62
2021/12/25 07:41:36;;;;;;;42.38;19.65;;;;;;;0.07;100.00;100668.56;6218164;23;20008;-63
2021/12/25 07:44:02;;;;;;;38.45;17.38;;;;;;;0.06;100.00;100672.84;6217488;23;20020;-62
2021/12/25 07:46:27;;;;;;;37.85;18.83;;;;;;;0.11;100.00;100676.41;6218228;23;20036;-62
2021/12/25 07:48:53;;;;;;;36.20;19.40;;;;;;;0.12;100.00;100673.00;6217906;23;20005;-62
2021/12/25 07:51:18;;;;;;;42.38;19.17;;;;;;;0.12;100.00;100667.88;6217919;23;20004;-62
2021/12/25 07:53:44;;;;;;;35.40;17.80;;;;;;;0.11;100.00;100657.53;6218057;23;20084;-62
2021/12/25 07:56:10;;;;;;;29.98;14.98;;;;;;;0.19;100.00;100680.03;6217588;23;20083;-62
2021/12/25 07:58:36;;;;;;;33.25;18.20;;;;;;;0.14;100.00;100679.06;6217390;23;20090;-62
2021/12/25 08:01:01;;;;;;;35.92;17.88;;;;;;;0.13;100.00;100672.19;6215774;23;20004;-63
2021/12/25 08:03:27;;;;;;;28.58;14.07;;;;;;;0.12;100.00;100678.16;6216461;23;20008;-62
2021/12/25 08:05:52;;;;;;;28.65;14.70;;;;;;;0.09;100.00;100687.47;6217752;23;20013;-61
2021/12/25 08:08:17;;;;;;;28.77;15.38;;;;;;;0.05;100.00;100691.69;6217260;23;20011;-61
2021/12/25 08:10:44;;;;;;;30.60;15.80;;;;;;;0.05;100.00;100696.81;6217335;23;20062;-62
2021/12/25 08:13:10;;;;;;;30.15;16.08;;;;;;;0.02;100.00;100696.72;6217083;23;20009;-62
2021/12/25 08:15:35;;;;;;;28.92;15.90;;;;;;;-0.01;100.00;100705.25;6217786;23;20087;-61
2021/12/25 08:18:00;;;;;;;31.80;16.65;;;;;;;-0.06;100.00;100706.84;6217508;23;20086;-62
2021/12/25 08:20:27;;;;;;;28.13;14.77;;;;;;;0.13;100.00;100704.75;6217318;23;20035;-63
2021/12/25 08:22:53;;;;;;;23.95;13.60;;;;;;;0.00;100.00;100711.28;6217502;23;20080;-62
2021/12/25 08:25:18;;;;;;;27.27;13.82;;;;;;;-0.13;100.00;100707.47;6217439;23;20039;-62
2021/12/25 08:27:45;;;;;;;28.20;15.48;;;;;;;-0.08;100.00;100723.91;6217330;23;20271;-63
2021/12/25 08:30:17;;;;;;;24.77;14.45;;;;;;;-0.13;100.00;100706.63;6217031;23;20017;-61
2021/12/25 08:32:43;;;;;;;;;;;;;;;0.14;100.00;100720.22;6217919;23;20016;-63
2021/12/25 08:35:12;;;;;;;26.08;14.30;;;;;;;-0.14;100.00;100717.72;6217062;23;19965;-62
2021/12/25 08:37:37;;;;;;;24.98;13.80;;;;;;;-0.11;100.00;100723.84;6217562;23;20019;-65
2021/12/25 08:40:04;;;;;;;24.38;13.85;;;;;;;-0.07;100.00;100724.78;6217467;23;20314;-64
2021/12/25 08:42:30;;;;;;;26.23;14.95;;;;;;;-0.17;100.00;100725.34;6216940;23;20035;-64
2021/12/25 08:47:23;;;;;;;24.70;14.57;;;;;;;0.07;100.00;100745.75;6227088;23;20009;-63
2021/12/25 08:49:48;;;;;;;24.75;14.30;;;;;;;-0.03;100.00;100742.06;6215826;23;20075;-64
2021/12/25 08:52:17;;;;;;;24.67;15.00;;;;;;;-0.03;100.00;100747.19;6217673;23;20112;-62
2021/12/25 08:54:44;;;;;;;24.92;14.07;;;;;;;-0.06;100.00;100750.56;6217573;23;20040;-64
2021/12/25 08:57:10;;;;;;;25.48;14.52;;;;;;;-0.02;100.00;100748.94;6216976;23;20008;-63
2021/12/25 08:59:37;;;;;;;22.48;12.60;;;;;;;-0.04;100.00;100746.34;6214734;23;20009;-64
2021/12/25 09:02:06;;;;;;;23.60;13.63;;;;;;;-0.04;100.00;100754.03;6216705;23;20008;-63
2021/12/25 09:04:31;;;;;;;21.88;13.38;;;;;;;-0.05;100.00;100742.00;6217373;23;20012;-63
2021/12/25 09:06:58;;;;;;;23.83;13.60;;;;;;;-0.07;100.00;100765.94;6217515;23;20268;-63
2021/12/25 09:09:23;;;;;;;23.48;13.68;;;;;;;-0.15;100.00;100737.44;6217183;23;20005;-64
2021/12/25 09:11:49;;;;;;;21.88;13.95;;;;;;;-0.09;100.00;100750.47;6217158;23;20044;-65
2021/12/25 09:14:14;;;;;;;23.17;13.55;;;;;;;-0.14;100.00;100748.59;6216830;23;20015;-64
2021/12/25 09:16:40;;;;;;;19.65;11.32;;;;;;;-0.14;100.00;100761.44;6217146;23;20013;-64
2021/12/25 09:19:06;;;;;;;20.35;12.15;;;;;;;-0.25;100.00;100757.72;6217543;23;20016;-63
2021/12/25 09:21:31;;;;;;;24.10;13.02;;;;;;;-0.43;100.00;100727.19;6217134;23;20004;-63
2021/12/25 09:23:57;;;;;;;17.60;10.23;;;;;;;-0.20;100.00;100761.28;6217066;23;20004;-64
2021/12/25 09:26:22;;;;;;;20.23;12.40;;;;;;;-0.41;100.00;100746.13;6217371;23;20312;-64
2021/12/25 09:28:48;;;;;;;20.15;12.43;;;;;;;-0.31;100.00;100762.66;6217264;23;20070;-64
2021/12/25 09:31:13;;;;;;;22.98;12.85;;;;;;;-0.34;100.00;100760.88;6217215;23;20059;-64
2021/12/25 09:33:39;;;;;;;23.02;13.40;;;;;;;-0.22;100.00;100765.50;6217399;23;20009;-64
2021/12/25 09:36:05;;;;;;;21.48;13.40;;;;;;;-0.25;100.00;100768.00;6217482;23;20302;-64
2021/12/25 09:38:31;;;;;;;24.30;13.90;;;;;;;-0.27;100.00;100756.78;6216764;23;20276;-64
2021/12/25 09:40:58;;;;;;;23.90;12.25;;;;;;;-0.35;100.00;100772.00;6216125;23;20008;-64
2021/12/25 09:43:23;;;;;;;21.05;13.43;;;;;;;-0.26;100.00;100767.13;6217058;23;20075;-63
2021/12/25 09:45:48;;;;;;;21.30;12.48;;;;;;;-0.30;100.00;100762.72;6216503;23;20016;-64
2021/12/25 09:48:14;;;;;;;26.75;17.50;;;;;;;-0.24;100.00;100780.91;6216754;23;20009;-64
2021/12/25 09:50:39;;;;;;;20.92;13.07;;;;;;;-0.19;100.00;100775.91;6216860;23;20088;-60
2021/12/25 09:53:10;;;;;;;21.35;13.73;;;;;;;-0.18;100.00;100772.50;6217185;23;20390;-63
2021/12/25 09:55:38;;;;;;;18.50;11.95;;;;;;;-0.36;100.00;100765.13;6217933;23;20004;-64
2021/12/25 09:58:03;;;;;;;21.08;14.00;;;;;;;-0.33;100.00;100778.03;6217026;23;20048;-64
2021/12/25 10:00:29;;;;;;;24.67;16.38;;;;;;;-0.23;100.00;100795.50;6215974;23;20062;-64
2021/12/25 10:02:56;;;;;;;22.95;12.27;;;;;;;-0.31;100.00;100806.38;6217237;23;20074;-63
2021/12/25 10:05:32;;;;;;;19.98;11.32;;;;;;;-0.28;100.00;100802.19;6217136;23;20008;-64
2021/12/25 10:08:02;;;;;;;20.48;12.02;;;;;;;-0.39;100.00;100812.16;6217318;23;20016;-64
2021/12/25 10:10:42;;;;;;;21.23;13.13;;;;;;;-0.27;100.00;100805.63;6219555;23;20008;-64
2021/12/25 10:13:22;;;;;;;20.45;12.20;;;;;;;-0.31;100.00;100816.66;6219040;23;20032;-64
2021/12/25 10:15:49;;;;;;;19.40;11.55;;;;;;;-0.29;100.00;100809.84;6214528;23;20031;-64
2021/12/25 10:18:15;;;;;;;16.58;10.80;;;;;;;-0.35;100.00;100793.41;6218980;23;20005;-63
2021/12/25 10:20:40;;;;;;;22.38;12.43;;;;;;;-0.39;100.00;100807.03;6218498;23;20413;-64
2021/12/25 10:23:12;;;;;;;18.83;12.05;;;;;;;-0.41;100.00;100807.81;6218944;23;20070;-64
2021/12/25 10:25:48;;;;;;;23.38;12.35;;;;;;;-0.35;100.00;100821.69;6219133;23;20073;-64
2021/12/25 10:28:16;;;;;;;20.10;12.55;;;;;;;-0.30;100.00;100802.97;6219160;23;20017;-64
2021/12/25 10:30:53;;;;;;;22.25;12.60;;;;;;;-0.28;100.00;100811.59;6218652;23;20346;-64
2021/12/25 10:33:23;;;;;;;19.33;11.23;;;;;;;-0.25;100.00;100814.28;6219138;23;20008;-64
2021/12/25 10:35:48;;;;;;;18.42;12.13;;;;;;;-0.29;100.00;100804.72;6218617;23;20005;-65
2021/12/25 10:38:13;;;;;;;17.95;11.45;;;;;;;-0.45;100.00;100793.09;6219101;23;20307;-64
2021/12/25 10:40:39;;;;;;;16.05;9.80;;;;;;;-0.34;100.00;100804.56;6218817;23;20378;-64
2021/12/25 10:43:04;;;;;;;17.88;11.63;;;;;;;-0.36;100.00;100801.97;6218704;23;20008;-64
2021/12/25 10:45:32;;;;;;;19.52;11.52;;;;;;;-0.39;100.00;100813.88;6218306;23;20048;-64
2021/12/25 10:48:04;;;;;;;16.60;10.25;;;;;;;-0.40;100.00;100795.00;6218685;23;20028;-64
2021/12/25 10:50:38;;;;;;;17.70;11.13;;;;;;;-0.47;100.00;100808.47;6218692;23;20005;-64
2021/12/25 10:53:22;;;;;;;15.00;10.02;;;;;;;-0.44;100.00;100808.59;6218818;23;20247;-64
2021/12/25 10:55:48;;;;;;;14.18;9.63;;;;;;;-0.38;100.00;100803.63;6218554;23;20009;-64
2021/12/25 10:58:19;;;;;;;17.30;10.10;;;;;;;-0.36;100.00;100799.41;6218101;23;20112;-64
2021/12/25 11:00:50;;;;;;;16.15;10.75;;;;;;;-0.38;100.00;100806.22;6219001;23;20004;-64
2021/12/25 11:03:15;;;;;;;17.27;10.48;;;;;;;-0.45;100.00;100786.28;6218173;23;20062;-64
2021/12/25 11:05:46;;;;;;;12.50;8.68;;;;;;;-0.42;100.00;100808.63;6218492;23;20382;-64
2021/12/25 11:08:21;;;;;;;13.38;8.93;;;;;;;-0.47;100.00;100795.63;6217880;23;20083;-65
2021/12/25 11:10:53;;;;;;;14.23;8.50;;;;;;;-0.49;100.00;100792.13;6218414;23;20015;-64
2021/12/25 11:13:27;;;;;;;15.25;8.70;;;;;;;-0.48;100.00;100799.03;6218955;23;20298;-64
2021/12/25 11:16:03;;;;;;;13.98;8.73;;;;;;;-0.49;100.00;100809.25;6218737;23;20040;-64
2021/12/25 11:18:28;;;;;;;11.95;8.20;;;;;;;-0.49;100.00;100804.13;6218542;23;20080;-64
2021/12/25 11:20:56;;;;;;;12.85;8.00;;;;;;;-0.47;100.00;100816.19;6217569;23;20036;-64
2021/12/25 11:23:21;;;;;;;11.73;8.00;;;;;;;-0.44;100.00;100810.28;6218879;23;20008;-64
2021/12/25 11:25:46;;;;;;;12.18;8.18;;;;;;;-0.37;100.00;100807.94;6218233;23;20009;-65
2021/12/25 11:28:18;;;;;;;10.77;7.95;;;;;;;-0.33;100.00;100808.88;6218417;23;20074;-64
2021/12/25 11:30:46;;;;;;;10.88;7.65;;;;;;;-0.35;100.00;100815.72;6218329;23;20087;-64
2021/12/25 11:33:12;;;;;;;10.75;7.03;;;;;;;-0.47;100.00;100797.31;6218494;23;20004;-64
2021/12/25 11:35:40;;;;;;;13.48;7.30;;;;;;;-0.37;100.00;100807.94;6218155;23;20015;-64
2021/12/25 11:38:07;;;;;;;11.32;6.63;;;;;;;-0.46;100.00;100799.06;6218113;23;20004;-64
2021/12/25 11:40:37;;;;;;;10.73;6.45;;;;;;;-0.57;100.00;100787.59;6218213;23;20012;-64
2021/12/25 11:43:04;;;;;;;9.73;6.55;;;;;;;-0.67;100.00;100776.16;6218149;23;20032;-64
2021/12/25 11:45:37;;;;;;;12.02;6.43;;;;;;;-0.55;100.00;100793.66;6218181;23;20083;-64
2021/12/25 11:48:15;;;;;;;10.00;5.82;;;;;;;-0.74;100.00;100781.94;6217903;23;20036;-64
2021/12/25 11:50:45;;;;;;;11.13;5.88;;;;;;;-0.65;100.00;100799.34;6218180;23;20426;-64
2021/12/25 11:53:21;;;;;;;11.73;6.20;;;;;;;-0.58;100.00;100794.44;6218632;23;20012;-64
2021/12/25 11:58:48;;;;;;;8.75;5.10;;;;;;;-0.72;100.00;100790.59;6217469;23;20017;-64
2021/12/25 12:01:23;;;;;;;7.80;5.10;;;;;;;-0.61;100.00;100799.47;6218278;23;20004;-64
2021/12/25 12:03:54;;;;;;;13.20;6.18;;;;;;;-0.65;100.00;100797.63;6217854;23;20005;-64
2021/12/25 12:06:39;;;;;;;8.43;5.53;;;;;;;-0.63;100.00;100793.41;6217978;23;20063;-64
2021/12/25 12:09:09;;;;;;;7.30;4.80;;;;;;;-0.58;100.00;100799.59;6217342;23;20402;-64